Time;durP1;ratioP1;P1;durP2;ratioP2;P2;SDS_P1;SDS_P2;PMS_P1;PMS_P2;Temp;Humidity;BMP_temperature;BMP_pressure;BME280_temperature;BME280_humidity;BME280_pressure;Samples;Min_cycle;Max_cycle;Signal;HPM_P1;HPM_P2
2023/04/05 00:01:41;;;;;;;51.00;18.50;;;;;;;1.39;49.37;99424.13;68327;1282;1015960;-62
2023/04/05 00:04:49;;;;;;;63.70;22.40;;;;;;;0.76;50.72;99421.13;68310;1282;1015260;-62
2023/04/05 00:07:53;;;;;;;65.40;24.30;;;;;;;0.66;51.29;99417.64;68315;1282;1016827;-62
2023/04/05 00:10:55;;;;;;;58.40;21.80;;;;;;;0.65;51.27;99416.78;68327;1282;1015916;-62
2023/04/05 00:13:58;;;;;;;60.50;22.10;;;;;;;0.65;51.00;99415.75;68314;1282;1016396;-62
2023/04/05 00:17:01;;;;;;;67.50;23.80;;;;;;;0.69;51.05;99411.39;68306;1282;1015223;-62
2023/04/05 00:20:06;;;;;;;62.90;23.40;;;;;;;0.69;51.37;99408.48;68316;1282;1015405;-63
2023/04/05 00:23:09;;;;;;;70.80;26.60;;;;;;;0.79;51.71;99402.67;68325;1259;1014605;-62
2023/04/05 00:26:11;;;;;;;;;;;;;;;0.93;51.31;99396.65;68317;1282;1015276;-62
2023/04/05 00:29:14;;;;;;;70.20;24.60;;;;;;;0.87;51.37;99394.83;68326;1282;1016281;-62
2023/04/05 00:32:16;;;;;;;95.30;32.00;;;;;;;0.87;51.20;99391.22;68312;1282;1016393;-62
2023/04/05 00:35:18;;;;;;;90.90;30.20;;;;;;;0.84;51.02;99392.46;68289;1282;1015364;-62
2023/04/05 00:38:21;;;;;;;84.20;29.60;;;;;;;0.84;51.05;99388.16;68313;1282;1015674;-62
2023/04/05 00:41:23;;;;;;;77.40;27.80;;;;;;;0.77;50.86;99389.96;68308;1282;1016250;-62
2023/04/05 00:44:27;;;;;;;73.90;27.40;;;;;;;0.65;51.09;99388.89;68326;1282;1015896;-62
2023/04/05 00:47:30;;;;;;;72.60;25.30;;;;;;;0.54;51.19;99381.78;68313;1282;1014927;-61
2023/04/05 00:50:32;;;;;;;68.10;23.30;;;;;;;0.44;51.35;99380.52;68305;1282;1015366;-62
2023/04/05 00:53:34;;;;;;;66.30;22.10;;;;;;;0.42;51.51;99381.23;68322;1282;1015840;-62
2023/04/05 00:56:37;;;;;;;69.20;25.00;;;;;;;0.38;51.44;99378.37;68322;1282;1014311;-62
2023/04/05 00:59:39;;;;;;;64.10;23.50;;;;;;;0.33;51.51;99378.05;68313;1282;1015095;-62
2023/04/05 01:02:44;;;;;;;;;;;;;;;0.30;51.46;99374.83;68313;1282;1017004;-62
2023/04/05 01:05:47;;;;;;;68.00;23.50;;;;;;;0.27;51.59;99375.21;68323;1282;1014635;-62
2023/04/05 01:08:50;;;;;;;69.80;24.80;;;;;;;0.28;51.94;99373.29;68322;1282;1015737;-62
2023/04/05 01:11:55;;;;;;;116.10;42.80;;;;;;;0.34;51.88;99374.96;68326;1282;1015576;-63
2023/04/05 01:14:57;;;;;;;79.90;28.80;;;;;;;0.47;52.56;99374.83;68319;1282;1015860;-62
2023/04/05 01:18:01;;;;;;;73.20;25.90;;;;;;;0.64;51.67;99370.66;68311;1282;1015873;-62
2023/04/05 01:21:04;;;;;;;73.50;27.70;;;;;;;0.60;51.28;99372.95;65730;1282;5351570;-61
2023/04/05 01:24:08;;;;;;;70.40;25.50;;;;;;;0.58;51.41;99374.70;68306;1282;1016052;-62
2023/04/05 01:27:11;;;;;;;71.10;25.70;;;;;;;0.51;51.59;99369.27;68313;1282;1015736;-62
2023/04/05 01:30:13;;;;;;;70.40;26.00;;;;;;;0.59;51.81;99370.73;68303;1282;1015509;-62
2023/04/05 01:33:15;;;;;;;75.80;27.50;;;;;;;0.70;51.72;99369.56;68324;1282;1015267;-62
2023/04/05 01:36:18;;;;;;;68.20;26.20;;;;;;;0.57;51.60;99370.92;68311;1282;1015773;-62
2023/04/05 01:39:28;;;;;;;70.20;25.80;;;;;;;0.54;51.57;99365.95;68309;1282;1016288;-62
2023/04/05 01:42:31;;;;;;;62.40;22.60;;;;;;;0.59;51.76;99370.21;68309;1282;1015650;-62
2023/04/05 01:45:33;;;;;;;73.90;24.50;;;;;;;0.60;51.41;99376.04;68304;1282;1016050;-61
2023/04/05 01:48:35;;;;;;;62.10;23.40;;;;;;;0.55;51.44;99369.73;68313;1282;1014238;-62
2023/04/05 01:51:40;;;;;;;67.10;24.30;;;;;;;0.54;51.47;99366.31;68295;1282;1016183;-62
2023/04/05 01:54:43;;;;;;;79.20;29.70;;;;;;;0.59;51.56;99367.81;68321;1282;1016320;-62
2023/04/05 01:57:45;;;;;;;81.70;30.60;;;;;;;0.75;51.84;99368.13;68321;1282;1015934;-62
2023/04/05 02:00:47;;;;;;;69.40;26.00;;;;;;;0.76;51.66;99370.35;68317;1282;1016150;-62
2023/04/05 02:03:50;;;;;;;67.20;25.30;;;;;;;0.65;51.92;99368.92;68291;1282;1016411;-62
2023/04/05 02:06:52;;;;;;;68.50;24.70;;;;;;;0.57;51.72;99364.73;68316;1282;1015276;-62
2023/04/05 02:09:54;;;;;;;64.20;24.90;;;;;;;0.53;51.97;99367.52;68304;1282;1016209;-61
2023/04/05 02:12:58;;;;;;;64.50;24.10;;;;;;;0.67;51.89;99363.75;68306;1282;1015380;-62
2023/04/05 02:16:00;;;;;;;60.70;22.10;;;;;;;0.73;51.95;99359.55;68323;1282;1015799;-62
2023/04/05 02:19:02;;;;;;;56.20;19.50;;;;;;;0.86;52.33;99360.91;68312;1282;1015760;-62
2023/04/05 02:22:05;;;;;;;50.90;19.20;;;;;;;1.19;52.10;99364.11;68304;1282;1016513;-62
2023/04/05 02:25:08;;;;;;;57.10;20.30;;;;;;;1.28;51.79;99362.08;68314;1282;1014656;-61
2023/04/05 02:28:10;;;;;;;53.60;18.90;;;;;;;1.31;51.83;99359.61;68304;1282;1015845;-62
2023/04/05 02:31:12;;;;;;;53.50;19.10;;;;;;;1.25;51.49;99357.46;68309;1264;1015896;-62
2023/04/05 02:34:15;;;;;;;48.20;19.20;;;;;;;1.22;51.84;99350.10;68307;1282;1015546;-61
2023/04/05 02:37:17;;;;;;;52.90;18.40;;;;;;;1.27;52.02;99349.17;68307;1282;1015914;-62
2023/04/05 02:40:20;;;;;;;67.40;23.50;;;;;;;1.39;52.29;99347.60;68310;1282;1015986;-62
2023/04/05 02:43:23;;;;;;;64.80;24.50;;;;;;;1.39;52.09;99347.95;68313;1282;1016027;-62
2023/04/05 02:46:25;;;;;;;53.80;20.70;;;;;;;1.33;52.18;99343.04;68318;1282;1015952;-62
2023/04/05 02:49:27;;;;;;;58.40;21.70;;;;;;;1.43;52.40;99342.55;68308;1282;1015520;-62
2023/04/05 02:52:31;;;;;;;52.70;18.60;;;;;;;1.45;52.52;99338.04;68311;1282;1015710;-61
2023/04/05 02:55:33;;;;;;;64.30;20.80;;;;;;;1.44;52.65;99342.02;68319;1282;1015264;-62
2023/04/05 02:58:35;;;;;;;57.40;18.80;;;;;;;1.51;52.60;99342.08;68325;1282;1015710;-62
2023/04/05 03:01:42;;;;;;;50.30;18.40;;;;;;;1.59;52.13;99336.26;68301;1282;1015440;-62
2023/04/05 03:04:45;;;;;;;60.50;22.40;;;;;;;1.52;52.14;99333.80;68297;1282;1015269;-61
2023/04/05 03:07:50;;;;;;;56.40;19.70;;;;;;;1.52;52.31;99331.55;68310;1282;1015765;-62
2023/04/05 03:10:52;;;;;;;49.40;18.30;;;;;;;1.66;52.57;99332.55;68317;1282;1015737;-61
2023/04/05 03:13:54;;;;;;;48.80;17.90;;;;;;;1.76;51.75;99323.56;68300;1282;1016608;-61
2023/04/05 03:16:57;;;;;;;49.50;17.80;;;;;;;1.53;51.74;99322.76;68304;1282;1015742;-61
2023/04/05 03:20:07;;;;;;;48.50;18.10;;;;;;;1.43;51.88;99322.90;68308;1282;1015298;-62
2023/04/05 03:23:10;;;;;;;45.60;18.40;;;;;;;1.36;52.22;99327.49;68302;1282;1015334;-62
2023/04/05 03:26:13;;;;;;;51.70;18.90;;;;;;;1.40;52.30;99325.02;68311;1282;1015842;-61
2023/04/05 03:29:15;;;;;;;52.40;19.30;;;;;;;1.39;51.89;99324.52;68321;1282;1015727;-62
2023/04/05 03:32:17;;;;;;;55.50;20.70;;;;;;;1.00;52.33;99331.98;68312;1282;1016116;-62
2023/04/05 03:35:20;;;;;;;65.10;24.40;;;;;;;0.63;52.86;99330.73;68303;1282;1015789;-62
2023/04/05 03:38:22;;;;;;;60.40;20.60;;;;;;;0.70;52.85;99332.20;68301;1282;1015411;-62
2023/04/05 03:41:25;;;;;;;61.40;22.10;;;;;;;0.91;53.07;99335.54;68296;1282;1015221;-62
2023/04/05 03:44:27;;;;;;;64.50;23.70;;;;;;;1.08;52.64;99334.11;68300;1282;1015263;-61
2023/04/05 03:47:29;;;;;;;61.00;20.80;;;;;;;1.12;52.38;99335.27;68304;1282;1015866;-62
2023/04/05 03:50:32;;;;;;;67.80;26.70;;;;;;;1.05;52.40;99338.97;68304;1282;1015883;-62
2023/04/05 03:53:34;;;;;;;59.20;21.90;;;;;;;1.12;52.25;99337.33;68311;1282;1015940;-62
2023/04/05 03:56:37;;;;;;;64.10;23.10;;;;;;;1.16;52.46;99333.12;68319;1282;1015515;-62
2023/04/05 03:59:40;;;;;;;53.70;19.70;;;;;;;1.27;52.71;99331.77;68297;1282;1016244;-62
2023/04/05 04:02:42;;;;;;;53.20;20.20;;;;;;;1.41;52.59;99334.30;68296;1282;1015655;-61
2023/04/05 04:05:44;;;;;;;54.20;20.10;;;;;;;1.35;52.21;99335.24;68298;1282;1015448;-62
2023/04/05 04:08:47;;;;;;;58.10;21.80;;;;;;;1.22;52.67;99333.91;68319;1282;1015515;-62
2023/04/05 04:11:49;;;;;;;49.00;19.80;;;;;;;1.14;52.67;99340.23;68305;1282;1015357;-61
2023/04/05 04:14:52;;;;;;;51.50;19.00;;;;;;;1.08;52.63;99341.51;68294;1282;1015624;-61
2023/04/05 04:17:54;;;;;;;54.90;19.60;;;;;;;1.01;53.10;99343.85;68311;1282;1015896;-61
2023/04/05 04:20:57;;;;;;;50.80;19.10;;;;;;;1.04;53.36;99344.16;68319;1282;1016591;-61
2023/04/05 04:23:59;;;;;;;57.10;19.20;;;;;;;1.12;53.14;99343.17;68309;1282;1014740;-61
2023/04/05 04:27:02;;;;;;;59.30;21.30;;;;;;;1.19;53.18;99342.20;68307;1282;1016152;-62
2023/04/05 04:30:04;;;;;;;53.80;20.40;;;;;;;1.31;53.02;99340.84;68299;1282;1015625;-61
2023/04/05 04:33:07;;;;;;;61.00;21.10;;;;;;;1.31;52.89;99337.39;68319;1282;1015410;-61
2023/04/05 04:36:13;;;;;;;;;;;;;;;1.38;52.88;99343.14;68314;1282;1016019;-62
2023/04/05 04:39:15;;;;;;;63.60;21.20;;;;;;;1.73;52.03;99342.08;68305;1282;1015586;-61
2023/04/05 04:42:21;;;;;;;65.30;21.70;;;;;;;1.59;52.78;99343.87;68292;1282;1015397;-61
2023/04/05 04:45:25;;;;;;;67.30;22.70;;;;;;;1.54;52.68;99344.61;68312;1282;1015649;-61
2023/04/05 04:48:27;;;;;;;65.30;24.50;;;;;;;1.52;52.87;99349.13;68297;1282;1015356;-62
2023/04/05 04:51:29;;;;;;;115.50;43.50;;;;;;;1.58;53.11;99348.36;68315;1282;1015321;-62
2023/04/05 04:54:32;;;;;;;99.90;38.60;;;;;;;1.66;53.33;99351.48;68303;1282;1015947;-61
2023/04/05 04:57:35;;;;;;;89.30;34.40;;;;;;;1.75;53.38;99356.02;68295;1282;1016179;-61
2023/04/05 05:00:37;;;;;;;73.40;25.70;;;;;;;1.90;53.44;99356.09;68307;1282;1016451;-61
2023/04/05 05:03:40;;;;;;;57.00;21.20;;;;;;;2.01;53.83;99359.02;68293;1282;1015607;-62
2023/04/05 05:06:42;;;;;;;51.80;21.10;;;;;;;2.20;53.73;99357.30;68315;1282;1016062;-62
2023/04/05 05:09:44;;;;;;;62.80;24.50;;;;;;;2.37;53.71;99360.60;68300;1282;1016198;-62
2023/04/05 05:12:47;;;;;;;71.20;25.00;;;;;;;2.44;53.89;99362.54;68318;1282;1016158;-61
2023/04/05 05:15:50;;;;;;;;;;;;;;;2.66;53.88;99364.20;68313;1282;1016547;-62
2023/04/05 05:18:53;;;;;;;96.60;44.90;;;;;;;2.65;53.63;99371.11;68307;1282;1014834;-61
2023/04/05 05:21:55;;;;;;;113.20;41.40;;;;;;;2.68;53.80;99370.70;68298;1282;1015623;-62
2023/04/05 05:24:57;;;;;;;49.30;19.80;;;;;;;2.96;53.32;99367.55;68309;1282;1014491;-61
2023/04/05 05:28:00;;;;;;;84.50;31.50;;;;;;;2.96;53.62;99363.23;68300;1282;1016253;-62
2023/04/05 05:31:02;;;;;;;82.20;32.30;;;;;;;3.15;53.46;99363.34;68304;1282;1016129;-61
2023/04/05 05:34:06;;;;;;;87.00;33.30;;;;;;;3.19;53.18;99362.39;68316;1282;1016171;-61
2023/04/05 05:37:09;;;;;;;79.10;31.00;;;;;;;3.18;53.51;99363.10;68303;1282;1015495;-62
2023/04/05 05:40:12;;;;;;;82.20;29.40;;;;;;;3.47;54.05;99358.98;68300;1282;1015585;-62
2023/04/05 05:43:15;;;;;;;71.50;29.30;;;;;;;4.03;53.69;99364.36;68293;1282;1015831;-61
2023/04/05 05:46:18;;;;;;;;;;;;;;;4.48;53.26;99359.02;68324;1282;1015987;-62
2023/04/05 05:49:22;;;;;;;85.20;36.40;;;;;;;4.88;52.40;99354.44;68307;1282;1016192;-61
2023/04/05 05:52:24;;;;;;;86.10;36.00;;;;;;;5.14;52.32;99355.92;68292;1282;1015713;-61
2023/04/05 05:55:27;;;;;;;82.40;35.50;;;;;;;5.51;51.74;99353.56;68311;1282;1016098;-61
2023/04/05 05:58:29;;;;;;;99.70;41.10;;;;;;;5.90;51.25;99354.89;68303;1282;1015749;-61
2023/04/05 06:01:33;;;;;;;69.70;29.00;;;;;;;6.12;49.92;99354.20;68302;1282;1015511;-61
2023/04/05 06:04:36;;;;;;;78.10;32.60;;;;;;;5.84;49.64;99357.33;68311;1282;1015604;-61
2023/04/05 06:07:43;;;;;;;69.20;30.60;;;;;;;6.01;49.62;99354.73;68295;1282;1015910;-61
2023/04/05 06:10:45;;;;;;;69.50;27.40;;;;;;;5.91;49.35;99354.70;68305;1282;1015750;-61
2023/04/05 06:13:48;;;;;;;64.30;27.10;;;;;;;5.78;49.63;99354.77;68303;1282;1015838;-61
2023/04/05 06:16:50;;;;;;;66.30;27.90;;;;;;;6.08;49.78;99356.40;68300;1282;1015685;-62
2023/04/05 06:19:53;;;;;;;64.00;27.60;;;;;;;6.24;49.87;99355.00;68310;1282;1015459;-61
2023/04/05 06:22:55;;;;;;;60.60;26.00;;;;;;;6.65;49.81;99357.17;68305;1282;1016157;-61
2023/04/05 06:25:57;;;;;;;56.20;25.60;;;;;;;6.90;49.60;99355.23;68302;1282;1015290;-61
2023/04/05 06:29:00;;;;;;;58.10;25.50;;;;;;;7.03;49.34;99353.38;68307;1282;1016134;-61
2023/04/05 06:32:02;;;;;;;61.30;25.60;;;;;;;7.09;49.13;99352.27;68293;1282;1015889;-61
2023/04/05 06:35:05;;;;;;;58.90;24.60;;;;;;;7.52;49.05;99354.23;68299;1282;1015554;-61
2023/04/05 06:38:08;;;;;;;56.80;23.10;;;;;;;7.82;48.34;99357.91;68302;1282;1015428;-61
2023/04/05 06:41:10;;;;;;;;;;;;;;;8.01;48.41;99355.05;68321;1282;1014420;-61
2023/04/05 06:44:12;;;;;;;55.70;22.40;;;;;;;8.30;47.85;99356.07;68295;1282;1016064;-61
2023/04/05 06:47:15;;;;;;;53.90;20.80;;;;;;;8.22;47.27;99353.12;68322;1282;1015428;-61
2023/04/05 06:50:17;;;;;;;51.70;22.20;;;;;;;8.37;47.75;99353.70;68311;1282;1015191;-61
2023/04/05 06:53:20;;;;;;;48.50;20.30;;;;;;;8.46;47.65;99351.08;68311;1282;1016220;-61
2023/04/05 06:56:23;;;;;;;42.80;16.70;;;;;;;8.31;47.55;99356.71;68318;1282;1015773;-61
2023/04/05 06:59:26;;;;;;;38.30;16.50;;;;;;;8.47;47.21;99353.45;68305;1282;1015549;-62
2023/04/05 07:02:28;;;;;;;37.30;15.40;;;;;;;8.52;46.96;99359.48;68285;1282;1015477;-61
2023/04/05 07:05:31;;;;;;;39.40;16.30;;;;;;;8.65;46.63;99357.59;68300;1282;1015681;-61
2023/04/05 07:08:33;;;;;;;42.70;15.70;;;;;;;8.76;47.02;99357.75;68316;1282;1016682;-61
2023/04/05 07:11:35;;;;;;;28.80;10.30;;;;;;;8.95;46.91;99355.52;68306;1282;1015607;-61
2023/04/05 07:14:38;;;;;;;30.40;10.00;;;;;;;8.74;46.35;99355.59;68313;1282;1015516;-61
2023/04/05 07:17:40;;;;;;;25.90;7.80;;;;;;;8.77;45.81;99352.14;68303;1282;1016142;-61
2023/04/05 07:20:43;;;;;;;;;;;;;;;8.65;45.92;99355.12;68312;1282;1016210;-61
2023/04/05 07:23:45;;;;;;;26.80;9.60;;;;;;;8.62;45.94;99357.67;68290;1282;1016071;-61
2023/04/05 07:26:48;;;;;;;32.30;10.10;;;;;;;8.69;45.40;99355.98;68301;1282;1015566;-61
2023/04/05 07:29:51;;;;;;;27.90;9.60;;;;;;;8.61;45.29;99358.41;68304;1282;1015400;-61
2023/04/05 07:32:53;;;;;;;30.00;9.20;;;;;;;8.69;45.83;99355.61;68312;1282;1015409;-61
2023/04/05 07:35:56;;;;;;;21.20;6.10;;;;;;;9.01;44.96;99352.96;68318;1282;1014873;-61
2023/04/05 07:38:58;;;;;;;;;;;;;;;8.90;43.82;99356.05;68308;1282;1015844;-61
2023/04/05 07:42:00;;;;;;;23.50;6.80;;;;;;;8.76;43.91;99355.14;68323;1282;1015334;-61
2023/04/05 07:45:03;;;;;;;25.70;7.70;;;;;;;9.03;44.33;99354.79;68309;1282;1017299;-61
2023/04/05 07:48:05;;;;;;;23.30;7.00;;;;;;;9.18;43.84;99357.90;68299;1282;1015826;-61
2023/04/05 07:51:08;;;;;;;25.00;7.10;;;;;;;9.45;42.79;99359.46;68309;1282;1015866;-61
2023/04/05 07:54:11;;;;;;;30.00;9.30;;;;;;;9.63;42.49;99355.31;68298;1282;1015198;-62
2023/04/05 07:57:13;;;;;;;27.20;8.50;;;;;;;9.75;42.81;99353.14;68295;1282;1016253;-61
2023/04/05 08:00:16;;;;;;;25.60;8.60;;;;;;;10.54;43.65;99347.45;68316;1282;1015309;-61
2023/04/05 08:03:18;;;;;;;27.70;9.20;;;;;;;11.11;40.85;99340.55;68307;1282;1015816;-61
2023/04/05 08:06:21;;;;;;;25.70;8.40;;;;;;;11.07;41.24;99342.33;68309;1282;1015780;-61
2023/04/05 08:09:23;;;;;;;30.90;10.60;;;;;;;11.00;41.23;99340.60;68310;1282;1015211;-61
2023/04/05 08:12:25;;;;;;;31.60;10.90;;;;;;;10.51;41.49;99345.65;68307;1265;1015768;-61
2023/04/05 08:15:28;;;;;;;32.10;10.90;;;;;;;9.63;41.53;99354.58;68294;1282;1015809;-61
2023/04/05 08:18:30;;;;;;;25.60;9.50;;;;;;;8.82;42.43;99359.95;68311;1282;1014234;-61
2023/04/05 08:21:32;;;;;;;27.00;8.80;;;;;;;8.41;42.96;99357.89;68323;1282;1015705;-61
2023/04/05 08:24:35;;;;;;;29.20;8.90;;;;;;;8.20;42.99;99354.96;68297;1282;1015601;-61
2023/04/05 08:27:37;;;;;;;23.40;7.90;;;;;;;8.10;43.47;99357.62;68312;1282;1015759;-61
2023/04/05 08:30:40;;;;;;;22.70;6.80;;;;;;;8.25;43.07;99360.66;68326;1282;1015740;-61
2023/04/05 08:33:42;;;;;;;25.50;6.90;;;;;;;8.19;42.33;99357.06;68318;1282;1016542;-61
2023/04/05 08:36:44;;;;;;;23.70;7.40;;;;;;;8.34;42.68;99357.30;68327;1282;1015801;-61
2023/04/05 08:39:47;;;;;;;21.60;6.00;;;;;;;8.36;41.96;99356.52;68308;1282;1016131;-61
2023/04/05 08:42:49;;;;;;;22.50;5.50;;;;;;;8.35;41.63;99358.64;68311;1282;1015528;-61
2023/04/05 08:45:51;;;;;;;19.30;4.90;;;;;;;8.41;40.30;99359.27;68322;1282;1015147;-61
2023/04/05 08:48:55;;;;;;;19.10;4.70;;;;;;;8.36;40.00;99357.25;68313;1282;1015938;-61
2023/04/05 08:51:57;;;;;;;16.70;4.30;;;;;;;8.55;40.45;99358.35;68326;1282;1015832;-61
2023/04/05 08:54:59;;;;;;;13.60;3.50;;;;;;;8.73;38.52;99355.28;68298;1282;1014574;-61
2023/04/05 08:58:03;;;;;;;16.50;3.60;;;;;;;8.72;38.79;99354.29;68324;1282;1015721;-61
2023/04/05 09:01:06;;;;;;;17.70;3.70;;;;;;;8.68;38.14;99353.58;68327;1282;1015661;-62
2023/04/05 09:04:09;;;;;;;17.50;4.20;;;;;;;8.62;38.04;99354.54;68314;1282;1015629;-61
2023/04/05 09:07:11;;;;;;;17.40;4.10;;;;;;;8.55;37.22;99349.95;68308;1282;1016195;-61
2023/04/05 09:10:14;;;;;;;18.20;4.40;;;;;;;8.41;36.79;99349.16;68314;1282;1015607;-61
2023/04/05 09:13:16;;;;;;;16.00;4.20;;;;;;;8.46;38.05;99346.86;68325;1282;1015607;-62
2023/04/05 09:16:19;;;;;;;17.50;4.10;;;;;;;8.65;38.70;99345.18;68313;1282;1015877;-62
2023/04/05 09:19:21;;;;;;;19.80;4.60;;;;;;;8.72;37.79;99343.67;68318;1282;1015503;-61
2023/04/05 09:22:23;;;;;;;21.00;4.80;;;;;;;9.14;38.33;99344.67;68317;1282;1016090;-61
2023/04/05 09:25:26;;;;;;;17.10;4.00;;;;;;;9.83;37.67;99335.80;68309;1282;1016270;-61
2023/04/05 09:28:28;;;;;;;15.60;3.90;;;;;;;10.40;36.96;99335.90;68324;1282;1015609;-62
2023/04/05 09:31:30;;;;;;;16.40;4.20;;;;;;;10.79;36.78;99332.84;68313;1282;1015701;-62
2023/04/05 09:34:33;;;;;;;16.70;3.60;;;;;;;10.77;34.92;99327.85;68310;1282;1015895;-62
2023/04/05 09:37:35;;;;;;;16.20;4.60;;;;;;;10.33;34.15;99325.11;68307;1282;1015421;-62
2023/04/05 09:40:37;;;;;;;16.60;4.30;;;;;;;9.93;33.78;99329.52;68318;1282;1015654;-61
2023/04/05 09:43:40;;;;;;;13.80;3.80;;;;;;;9.43;34.42;99320.63;68314;1282;1015344;-62
2023/04/05 09:46:43;;;;;;;18.30;4.70;;;;;;;9.86;35.24;99317.46;68325;1282;1016003;-62
2023/04/05 09:49:45;;;;;;;17.40;4.10;;;;;;;10.57;34.06;99312.28;68296;1282;1015787;-62
2023/04/05 09:52:48;;;;;;;16.20;3.90;;;;;;;11.12;34.10;99318.42;68328;1282;1015903;-61
2023/04/05 09:55:51;;;;;;;16.30;3.90;;;;;;;10.80;33.05;99333.80;68312;1282;1015889;-62
2023/04/05 09:58:54;;;;;;;16.00;4.30;;;;;;;10.36;33.48;99333.67;68325;1282;1015603;-62
2023/04/05 10:01:56;;;;;;;15.30;4.00;;;;;;;10.02;34.55;99330.65;68320;1282;1015649;-62
2023/04/05 10:04:59;;;;;;;17.80;4.30;;;;;;;9.83;35.10;99336.13;68331;1282;1015500;-63
2023/04/05 10:08:01;;;;;;;18.10;4.30;;;;;;;10.08;35.44;99339.77;68326;1282;1015732;-62
2023/04/05 10:11:03;;;;;;;20.10;4.30;;;;;;;10.67;35.15;99332.59;68322;1282;1015661;-62
2023/04/05 10:14:06;;;;;;;17.10;4.30;;;;;;;10.75;33.80;99323.92;68326;1282;1015806;-62
2023/04/05 10:17:09;;;;;;;17.80;4.40;;;;;;;10.54;33.37;99332.06;68320;1282;1015214;-62
2023/04/05 10:20:11;;;;;;;16.90;3.80;;;;;;;10.55;34.38;99323.55;68318;1282;1016056;-62
2023/04/05 10:23:13;;;;;;;16.60;4.10;;;;;;;10.95;34.01;99314.81;68326;1282;1015184;-62
2023/04/05 10:26:16;;;;;;;17.90;4.60;;;;;;;10.72;33.55;99324.45;68309;1282;1015494;-62
2023/04/05 10:29:18;;;;;;;18.10;4.00;;;;;;;10.48;33.12;99319.95;68318;1282;1015991;-61
2023/04/05 10:32:20;;;;;;;17.60;4.50;;;;;;;10.80;33.59;99312.11;68327;1282;1015243;-62
2023/04/05 10:35:23;;;;;;;17.50;3.80;;;;;;;11.61;33.34;99304.48;68328;1282;1015782;-61
2023/04/05 10:38:25;;;;;;;15.00;3.90;;;;;;;10.95;31.74;99316.56;68316;1282;1015590;-62
2023/04/05 10:41:28;;;;;;;;;;;;;;;10.47;32.50;99314.95;68322;1282;1015662;-62
2023/04/05 10:44:31;;;;;;;16.70;4.10;;;;;;;9.76;31.91;99311.31;68312;1282;1015683;-61
2023/04/05 10:47:34;;;;;;;13.60;3.30;;;;;;;9.27;33.27;99311.46;68310;1282;1015309;-62
2023/04/05 10:50:36;;;;;;;15.90;3.50;;;;;;;9.87;32.99;99309.25;68314;1282;1015566;-62
2023/04/05 10:53:39;;;;;;;13.60;2.90;;;;;;;10.46;32.77;99303.27;68316;1282;1015903;-62
2023/04/05 10:56:41;;;;;;;11.70;3.20;;;;;;;10.84;31.90;99293.92;68331;1282;1015495;-62
2023/04/05 10:59:43;;;;;;;13.60;3.60;;;;;;;11.26;32.31;99291.04;68318;1282;1015982;-62
2023/04/05 11:02:46;;;;;;;11.90;3.00;;;;;;;11.86;32.09;99290.43;68327;1282;1015822;-62
2023/04/05 11:05:48;;;;;;;16.30;3.90;;;;;;;11.90;30.65;99288.45;68313;1282;1016189;-62
2023/04/05 11:08:51;;;;;;;12.50;3.30;;;;;;;12.55;32.34;99275.41;68297;1282;1016728;-62
2023/04/05 11:11:53;;;;;;;14.50;3.50;;;;;;;13.65;32.67;99277.37;68301;1282;1015840;-62
2023/04/05 11:14:55;;;;;;;14.50;3.50;;;;;;;13.92;31.13;99276.11;68325;1282;1016579;-61
2023/04/05 11:17:58;;;;;;;11.70;3.20;;;;;;;13.20;30.24;99280.13;68327;1282;1015183;-62
2023/04/05 11:21:00;;;;;;;12.80;3.50;;;;;;;13.03;30.89;99281.38;68332;1282;1015846;-62
2023/04/05 11:24:03;;;;;;;13.10;3.30;;;;;;;13.08;30.90;99274.60;68327;1282;1014924;-62
2023/04/05 11:27:05;;;;;;;17.70;3.70;;;;;;;13.36;30.78;99277.02;68319;1282;1015945;-62
2023/04/05 11:30:08;;;;;;;17.50;3.40;;;;;;;13.00;30.45;99281.20;68330;1282;1015987;-62
2023/04/05 11:33:10;;;;;;;12.30;3.20;;;;;;;12.26;30.28;99280.91;68300;1282;1015294;-62
2023/04/05 11:36:14;;;;;;;12.40;3.60;;;;;;;11.90;30.21;99289.50;68332;1282;1015721;-62
2023/04/05 11:39:16;;;;;;;11.70;3.20;;;;;;;12.26;30.57;99282.68;68322;1282;1015787;-62
2023/04/05 11:42:19;;;;;;;12.90;3.30;;;;;;;12.34;30.23;99288.98;68329;1282;1015873;-62
2023/04/05 11:45:21;;;;;;;10.40;3.20;;;;;;;12.13;30.05;99284.61;68309;1282;1015435;-62
2023/04/05 11:48:23;;;;;;;12.50;3.20;;;;;;;12.38;30.80;99271.03;68304;1282;1015969;-62
2023/04/05 11:51:27;;;;;;;11.90;3.00;;;;;;;13.02;29.52;99271.08;68338;1282;1015752;-62
2023/04/05 11:54:30;;;;;;;18.30;3.80;;;;;;;12.90;29.41;99273.06;68323;1282;1015331;-62
2023/04/05 11:57:34;;;;;;;17.70;3.90;;;;;;;12.49;29.64;99281.23;68322;1282;1016007;-62
2023/04/05 12:00:37;;;;;;;13.00;3.30;;;;;;;11.91;29.92;99280.33;68309;1282;1015855;-62
2023/04/05 12:03:39;;;;;;;15.60;3.80;;;;;;;11.54;30.12;99283.33;68310;1282;1016017;-62
2023/04/05 12:06:41;;;;;;;14.80;3.90;;;;;;;11.17;30.73;99278.77;68310;1282;1016597;-62
2023/04/05 12:09:44;;;;;;;17.00;3.90;;;;;;;10.83;30.92;99282.20;68326;1282;1015832;-62
2023/04/05 12:12:47;;;;;;;19.00;4.90;;;;;;;10.80;31.18;99276.64;68341;1282;1014973;-62
2023/04/05 12:15:50;;;;;;;15.00;3.80;;;;;;;11.33;32.00;99269.30;68320;1282;1016181;-62
2023/04/05 12:18:52;;;;;;;15.20;3.80;;;;;;;11.56;31.14;99273.77;68328;1282;1015582;-62
2023/04/05 12:21:55;;;;;;;16.70;4.30;;;;;;;12.01;30.76;99269.96;68324;1282;1015469;-62
2023/04/05 12:24:57;;;;;;;17.70;4.20;;;;;;;11.85;29.95;99267.20;68313;1282;1015609;-62
2023/04/05 12:28:00;;;;;;;13.70;3.60;;;;;;;11.47;30.57;99273.39;68305;1282;1016760;-62
2023/04/05 12:31:02;;;;;;;16.60;4.20;;;;;;;11.17;30.62;99268.46;68316;1282;1015943;-62
2023/04/05 12:34:04;;;;;;;15.90;3.80;;;;;;;10.91;30.20;99269.75;68323;1282;1015998;-62
2023/04/05 12:37:07;;;;;;;13.80;3.90;;;;;;;11.20;30.70;99266.70;68322;1259;1015552;-62
2023/04/05 12:40:09;;;;;;;17.90;4.60;;;;;;;11.83;30.11;99264.14;68314;1267;1015525;-62
2023/04/05 12:43:18;;;;;;;19.30;4.50;;;;;;;12.16;30.06;99255.40;68317;1282;1015974;-62
2023/04/05 12:46:20;;;;;;;17.70;4.30;;;;;;;12.08;29.70;99256.73;68306;1282;1016059;-61
2023/04/05 12:49:23;;;;;;;16.30;3.80;;;;;;;11.78;29.78;99255.83;68318;1282;1015644;-62
2023/04/05 12:52:25;;;;;;;12.30;3.60;;;;;;;11.47;30.44;99255.69;68308;1282;1017262;-62
2023/04/05 12:55:27;;;;;;;15.20;3.80;;;;;;;11.27;31.16;99254.75;68334;1282;1015502;-62
2023/04/05 12:58:30;;;;;;;14.20;3.90;;;;;;;11.41;31.12;99258.16;68316;1259;1016564;-62
2023/04/05 13:01:32;;;;;;;16.20;4.10;;;;;;;11.41;30.70;99259.60;68328;1282;1015499;-62
2023/04/05 13:04:34;;;;;;;17.60;4.40;;;;;;;11.08;30.07;99258.08;68331;1282;1014465;-62
2023/04/05 13:07:37;;;;;;;16.20;3.80;;;;;;;10.74;30.65;99265.41;92039;1282;1015706;-62
2023/04/05 13:10:40;;;;;;;;;;;;;;;10.64;30.80;99274.31;69176;1282;1015741;-62
2023/04/05 13:13:43;;;;;;;14.20;3.50;;;;;;;10.55;31.19;99270.42;68445;1282;1015721;-62
2023/04/05 13:16:45;;;;;;;14.30;3.50;;;;;;;10.55;31.24;99268.52;68322;1271;1015831;-62
2023/04/05 13:19:48;;;;;;;16.60;3.80;;;;;;;11.21;31.71;99264.15;68330;1282;1015683;-62
2023/04/05 13:22:50;;;;;;;14.10;3.80;;;;;;;11.96;30.71;99259.34;65739;1282;6383110;-62
2023/04/05 13:25:52;;;;;;;14.80;4.00;;;;;;;12.59;29.82;99252.23;68314;1282;1016172;-62
2023/04/05 13:28:55;;;;;;;12.30;3.60;;;;;;;13.05;29.21;99248.21;68316;1282;1015706;-62
2023/04/05 13:31:57;;;;;;;17.20;3.90;;;;;;;13.75;29.33;99243.86;68320;1282;1015296;-62
2023/04/05 13:35:00;;;;;;;13.70;3.80;;;;;;;13.67;28.30;99243.16;68310;1282;1015327;-62
2023/04/05 13:38:02;;;;;;;13.80;3.60;;;;;;;12.90;27.82;99246.21;68320;1282;1015574;-61
2023/04/05 13:41:04;;;;;;;15.30;4.20;;;;;;;12.93;30.03;99254.11;68302;1282;1015730;-62
2023/04/05 13:44:07;;;;;;;17.40;3.90;;;;;;;13.28;29.98;99252.80;68314;1282;1015761;-62
2023/04/05 13:47:09;;;;;;;14.00;3.80;;;;;;;13.30;29.01;99246.12;68313;1282;1015974;-63
2023/04/05 13:50:11;;;;;;;17.00;4.10;;;;;;;13.36;29.38;99243.48;68311;1282;1016330;-62
2023/04/05 13:53:14;;;;;;;16.20;4.00;;;;;;;13.16;28.94;99243.19;68318;1282;1015498;-62